sensor_id;sensor_type;location;lat;lon;timestamp;P1;durP1;ratioP1;P2;durP2;ratioP2
76548;SDS011;65391;52.068;4.542;2023-12-22T00:01:23;12.5;;;2.2;;
76548;SDS011;65391;52.068;4.542;2023-12-22T00:03:48;11.7;;;1.8;;
76548;SDS011;65391;52.068;4.542;2023-12-22T00:06:13;11.7;;;1.8;;
76548;SDS011;65391;52.068;4.542;2023-12-22T00:08:38;11.7;;;1.8;;
76548;SDS011;65391;52.068;4.542;2023-12-22T00:11:03;11.7;;;1.8;;
76548;SDS011;65391;52.068;4.542;2023-12-22T00:13:29;10.8;;;1.6;;
76548;SDS011;65391;52.068;4.542;2023-12-22T00:15:53;10.8;;;1.6;;
76548;SDS011;65391;52.068;4.542;2023-12-22T00:18:18;10.8;;;1.6;;
76548;SDS011;65391;52.068;4.542;2023-12-22T00:20:43;10.8;;;1.6;;
76548;SDS011;65391;52.068;4.542;2023-12-22T00:23:08;16.1;;;3.4;;
76548;SDS011;65391;52.068;4.542;2023-12-22T00:25:33;16.1;;;3.4;;
76548;SDS011;65391;52.068;4.542;2023-12-22T00:27:58;16.1;;;3.4;;
76548;SDS011;65391;52.068;4.542;2023-12-22T00:30:23;16.1;;;3.4;;
76548;SDS011;65391;52.068;4.542;2023-12-22T00:32:48;15;;;2.6;;
76548;SDS011;65391;52.068;4.542;2023-12-22T00:35:14;15;;;2.6;;
76548;SDS011;65391;52.068;4.542;2023-12-22T00:37:38;15;;;2.6;;
76548;SDS011;65391;52.068;4.542;2023-12-22T00:40:04;15;;;2.6;;
76548;SDS011;65391;52.068;4.542;2023-12-22T00:42:28;12.6;;;3.1;;
76548;SDS011;65391;52.068;4.542;2023-12-22T00:44:53;12.6;;;3.1;;
76548;SDS011;65391;52.068;4.542;2023-12-22T00:47:18;12.6;;;3.1;;
76548;SDS011;65391;52.068;4.542;2023-12-22T00:49:43;12.6;;;3.1;;
76548;SDS011;65391;52.068;4.542;2023-12-22T00:52:09;12.6;;;3.1;;
76548;SDS011;65391;52.068;4.542;2023-12-22T00:54:33;12.1;;;2.2;;
76548;SDS011;65391;52.068;4.542;2023-12-22T00:56:58;12.1;;;2.2;;
76548;SDS011;65391;52.068;4.542;2023-12-22T00:59:23;12.1;;;2.2;;
76548;SDS011;65391;52.068;4.542;2023-12-22T01:01:48;12.1;;;2.2;;
76548;SDS011;65391;52.068;4.542;2023-12-22T01:04:13;7.4;;;2.1;;
76548;SDS011;65391;52.068;4.542;2023-12-22T01:06:38;7.4;;;2.1;;
76548;SDS011;65391;52.068;4.542;2023-12-22T01:09:04;7.4;;;2.1;;
76548;SDS011;65391;52.068;4.542;2023-12-22T01:11:29;7.4;;;2.1;;
76548;SDS011;65391;52.068;4.542;2023-12-22T01:13:53;16.3;;;3.4;;
76548;SDS011;65391;52.068;4.542;2023-12-22T01:16:18;16.3;;;3.4;;
76548;SDS011;65391;52.068;4.542;2023-12-22T01:18:43;16.3;;;3.4;;
76548;SDS011;65391;52.068;4.542;2023-12-22T01:21:11;16.3;;;3.4;;
76548;SDS011;65391;52.068;4.542;2023-12-22T01:23:33;15.7;;;2.8;;
76548;SDS011;65391;52.068;4.542;2023-12-22T01:25:58;15.7;;;2.8;;
76548;SDS011;65391;52.068;4.542;2023-12-22T01:28:23;15.7;;;2.8;;
76548;SDS011;65391;52.068;4.542;2023-12-22T01:30:48;15.7;;;2.8;;
76548;SDS011;65391;52.068;4.542;2023-12-22T01:33:14;11.9;;;2.6;;
76548;SDS011;65391;52.068;4.542;2023-12-22T01:35:38;11.9;;;2.6;;
76548;SDS011;65391;52.068;4.542;2023-12-22T01:38:03;11.9;;;2.6;;
76548;SDS011;65391;52.068;4.542;2023-12-22T01:40:28;11.9;;;2.6;;
76548;SDS011;65391;52.068;4.542;2023-12-22T01:42:53;16.4;;;3.5;;
76548;SDS011;65391;52.068;4.542;2023-12-22T01:45:19;16.4;;;3.5;;
76548;SDS011;65391;52.068;4.542;2023-12-22T01:47:44;16.4;;;3.5;;
76548;SDS011;65391;52.068;4.542;2023-12-22T01:50:09;16.4;;;3.5;;
76548;SDS011;65391;52.068;4.542;2023-12-22T01:52:33;16;;;3;;
76548;SDS011;65391;52.068;4.542;2023-12-22T01:54:58;16;;;3;;
76548;SDS011;65391;52.068;4.542;2023-12-22T01:57:24;16;;;3;;
76548;SDS011;65391;52.068;4.542;2023-12-22T01:59:48;16;;;3;;
76548;SDS011;65391;52.068;4.542;2023-12-22T02:02:13;16;;;3;;
76548;SDS011;65391;52.068;4.542;2023-12-22T02:04:39;16.9;;;2.6;;
76548;SDS011;65391;52.068;4.542;2023-12-22T02:07:04;16.9;;;2.6;;
76548;SDS011;65391;52.068;4.542;2023-12-22T02:09:31;16.9;;;2.6;;
76548;SDS011;65391;52.068;4.542;2023-12-22T02:11:54;16.9;;;2.6;;
76548;SDS011;65391;52.068;4.542;2023-12-22T02:14:19;15.5;;;2.5;;
76548;SDS011;65391;52.068;4.542;2023-12-22T02:16:46;15.5;;;2.5;;
76548;SDS011;65391;52.068;4.542;2023-12-22T02:19:15;15.5;;;2.5;;
76548;SDS011;65391;52.068;4.542;2023-12-22T02:21:34;15.5;;;2.5;;
76548;SDS011;65391;52.068;4.542;2023-12-22T02:23:59;16;;;2.1;;
76548;SDS011;65391;52.068;4.542;2023-12-22T02:26:26;16;;;2.1;;
76548;SDS011;65391;52.068;4.542;2023-12-22T02:28:49;16;;;2.1;;
76548;SDS011;65391;52.068;4.542;2023-12-22T02:31:16;16;;;2.1;;
76548;SDS011;65391;52.068;4.542;2023-12-22T02:33:39;13;;;2.9;;
76548;SDS011;65391;52.068;4.542;2023-12-22T02:36:04;13;;;2.9;;
76548;SDS011;65391;52.068;4.542;2023-12-22T02:38:29;13;;;2.9;;
76548;SDS011;65391;52.068;4.542;2023-12-22T02:40:54;13;;;2.9;;
76548;SDS011;65391;52.068;4.542;2023-12-22T02:43:19;16.3;;;2.8;;
76548;SDS011;65391;52.068;4.542;2023-12-22T02:45:44;16.3;;;2.8;;
76548;SDS011;65391;52.068;4.542;2023-12-22T02:48:09;16.3;;;2.8;;
76548;SDS011;65391;52.068;4.542;2023-12-22T02:50:34;16.3;;;2.8;;
76548;SDS011;65391;52.068;4.542;2023-12-22T02:52:59;12.4;;;2.1;;
76548;SDS011;65391;52.068;4.542;2023-12-22T02:55:24;12.4;;;2.1;;
76548;SDS011;65391;52.068;4.542;2023-12-22T02:57:49;12.4;;;2.1;;
76548;SDS011;65391;52.068;4.542;2023-12-22T03:00:14;12.4;;;2.1;;
76548;SDS011;65391;52.068;4.542;2023-12-22T03:02:39;7.9;;;1.9;;
76548;SDS011;65391;52.068;4.542;2023-12-22T03:05:04;7.9;;;1.9;;
76548;SDS011;65391;52.068;4.542;2023-12-22T03:07:29;7.9;;;1.9;;
76548;SDS011;65391;52.068;4.542;2023-12-22T03:09:54;7.9;;;1.9;;
76548;SDS011;65391;52.068;4.542;2023-12-22T03:12:19;7.9;;;1.9;;
76548;SDS011;65391;52.068;4.542;2023-12-22T03:14:44;12.4;;;2.3;;
76548;SDS011;65391;52.068;4.542;2023-12-22T03:17:09;12.4;;;2.3;;
76548;SDS011;65391;52.068;4.542;2023-12-22T03:19:34;12.4;;;2.3;;
76548;SDS011;65391;52.068;4.542;2023-12-22T03:21:59;12.4;;;2.3;;
76548;SDS011;65391;52.068;4.542;2023-12-22T03:24:24;13.3;;;2.2;;
76548;SDS011;65391;52.068;4.542;2023-12-22T03:26:49;13.3;;;2.2;;
76548;SDS011;65391;52.068;4.542;2023-12-22T03:29:14;13.3;;;2.2;;
76548;SDS011;65391;52.068;4.542;2023-12-22T03:31:39;13.3;;;2.2;;
76548;SDS011;65391;52.068;4.542;2023-12-22T03:34:04;13.6;;;2.2;;
76548;SDS011;65391;52.068;4.542;2023-12-22T03:36:29;13.6;;;2.2;;
76548;SDS011;65391;52.068;4.542;2023-12-22T03:38:54;13.6;;;2.2;;
76548;SDS011;65391;52.068;4.542;2023-12-22T03:41:19;13.6;;;2.2;;
76548;SDS011;65391;52.068;4.542;2023-12-22T03:43:44;17.6;;;3.3;;
76548;SDS011;65391;52.068;4.542;2023-12-22T03:46:09;17.6;;;3.3;;
76548;SDS011;65391;52.068;4.542;2023-12-22T03:48:34;17.6;;;3.3;;
76548;SDS011;65391;52.068;4.542;2023-12-22T03:50:59;17.6;;;3.3;;
76548;SDS011;65391;52.068;4.542;2023-12-22T03:53:24;13.6;;;2;;
76548;SDS011;65391;52.068;4.542;2023-12-22T03:55:49;13.6;;;2;;
76548;SDS011;65391;52.068;4.542;2023-12-22T03:58:14;13.6;;;2;;
76548;SDS011;65391;52.068;4.542;2023-12-22T04:00:39;13.6;;;2;;
76548;SDS011;65391;52.068;4.542;2023-12-22T04:03:04;9.8;;;1.7;;
76548;SDS011;65391;52.068;4.542;2023-12-22T04:05:29;9.8;;;1.7;;
76548;SDS011;65391;52.068;4.542;2023-12-22T04:07:54;9.8;;;1.7;;
76548;SDS011;65391;52.068;4.542;2023-12-22T04:10:19;9.8;;;1.7;;
76548;SDS011;65391;52.068;4.542;2023-12-22T04:12:44;12.2;;;2.3;;
76548;SDS011;65391;52.068;4.542;2023-12-22T04:15:09;12.2;;;2.3;;
76548;SDS011;65391;52.068;4.542;2023-12-22T04:17:34;12.2;;;2.3;;
76548;SDS011;65391;52.068;4.542;2023-12-22T04:19:59;12.2;;;2.3;;
76548;SDS011;65391;52.068;4.542;2023-12-22T04:22:24;12.2;;;2.3;;
76548;SDS011;65391;52.068;4.542;2023-12-22T04:24:49;12.9;;;3.5;;
76548;SDS011;65391;52.068;4.542;2023-12-22T04:27:14;12.9;;;3.5;;
76548;SDS011;65391;52.068;4.542;2023-12-22T04:29:39;12.9;;;3.5;;
76548;SDS011;65391;52.068;4.542;2023-12-22T04:32:04;12.9;;;3.5;;
76548;SDS011;65391;52.068;4.542;2023-12-22T04:34:29;16.3;;;2.3;;
76548;SDS011;65391;52.068;4.542;2023-12-22T04:36:54;16.3;;;2.3;;
76548;SDS011;65391;52.068;4.542;2023-12-22T04:39:19;16.3;;;2.3;;
76548;SDS011;65391;52.068;4.542;2023-12-22T04:41:44;16.3;;;2.3;;
76548;SDS011;65391;52.068;4.542;2023-12-22T04:44:09;17;;;4.3;;
76548;SDS011;65391;52.068;4.542;2023-12-22T04:46:34;17;;;4.3;;
76548;SDS011;65391;52.068;4.542;2023-12-22T04:48:59;17;;;4.3;;
76548;SDS011;65391;52.068;4.542;2023-12-22T04:51:24;17;;;4.3;;
76548;SDS011;65391;52.068;4.542;2023-12-22T04:53:49;16.3;;;3.3;;
76548;SDS011;65391;52.068;4.542;2023-12-22T04:56:14;16.3;;;3.3;;
76548;SDS011;65391;52.068;4.542;2023-12-22T04:58:39;16.3;;;3.3;;
76548;SDS011;65391;52.068;4.542;2023-12-22T05:01:04;16.3;;;3.3;;
76548;SDS011;65391;52.068;4.542;2023-12-22T05:03:29;13.7;;;1.9;;
76548;SDS011;65391;52.068;4.542;2023-12-22T05:05:54;13.7;;;1.9;;
76548;SDS011;65391;52.068;4.542;2023-12-22T05:08:19;13.7;;;1.9;;
76548;SDS011;65391;52.068;4.542;2023-12-22T05:10:44;13.7;;;1.9;;
76548;SDS011;65391;52.068;4.542;2023-12-22T05:13:09;14.5;;;2.8;;
76548;SDS011;65391;52.068;4.542;2023-12-22T05:15:34;14.5;;;2.8;;
76548;SDS011;65391;52.068;4.542;2023-12-22T05:17:59;14.5;;;2.8;;
76548;SDS011;65391;52.068;4.542;2023-12-22T05:20:24;14.5;;;2.8;;
76548;SDS011;65391;52.068;4.542;2023-12-22T05:22:49;14.5;;;2.5;;
76548;SDS011;65391;52.068;4.542;2023-12-22T05:25:14;14.5;;;2.5;;
76548;SDS011;65391;52.068;4.542;2023-12-22T05:27:39;14.5;;;2.5;;
76548;SDS011;65391;52.068;4.542;2023-12-22T05:30:05;14.5;;;2.5;;
76548;SDS011;65391;52.068;4.542;2023-12-22T05:32:29;14.5;;;2.5;;
76548;SDS011;65391;52.068;4.542;2023-12-22T05:34:54;13.8;;;2.7;;
76548;SDS011;65391;52.068;4.542;2023-12-22T05:37:19;13.8;;;2.7;;
76548;SDS011;65391;52.068;4.542;2023-12-22T05:39:44;13.8;;;2.7;;
76548;SDS011;65391;52.068;4.542;2023-12-22T05:42:09;13.8;;;2.7;;
76548;SDS011;65391;52.068;4.542;2023-12-22T05:44:34;12.7;;;2.8;;
76548;SDS011;65391;52.068;4.542;2023-12-22T05:46:59;12.7;;;2.8;;
76548;SDS011;65391;52.068;4.542;2023-12-22T05:49:24;12.7;;;2.8;;
76548;SDS011;65391;52.068;4.542;2023-12-22T05:51:49;12.7;;;2.8;;
76548;SDS011;65391;52.068;4.542;2023-12-22T05:54:14;16;;;3;;
76548;SDS011;65391;52.068;4.542;2023-12-22T05:56:39;16;;;3;;
76548;SDS011;65391;52.068;4.542;2023-12-22T05:59:04;16;;;3;;
76548;SDS011;65391;52.068;4.542;2023-12-22T06:01:29;16;;;3;;
76548;SDS011;65391;52.068;4.542;2023-12-22T06:03:54;14;;;5.3;;
76548;SDS011;65391;52.068;4.542;2023-12-22T06:06:19;14;;;5.3;;
76548;SDS011;65391;52.068;4.542;2023-12-22T06:08:44;14;;;5.3;;
76548;SDS011;65391;52.068;4.542;2023-12-22T06:11:09;14;;;5.3;;
76548;SDS011;65391;52.068;4.542;2023-12-22T06:13:34;17;;;4.4;;
76548;SDS011;65391;52.068;4.542;2023-12-22T06:15:59;17;;;4.4;;
76548;SDS011;65391;52.068;4.542;2023-12-22T06:18:24;17;;;4.4;;
76548;SDS011;65391;52.068;4.542;2023-12-22T06:20:49;17;;;4.4;;
76548;SDS011;65391;52.068;4.542;2023-12-22T06:23:14;16.8;;;3.5;;
76548;SDS011;65391;52.068;4.542;2023-12-22T06:25:40;16.8;;;3.5;;
76548;SDS011;65391;52.068;4.542;2023-12-22T06:28:04;16.8;;;3.5;;
76548;SDS011;65391;52.068;4.542;2023-12-22T06:30:29;16.8;;;3.5;;
76548;SDS011;65391;52.068;4.542;2023-12-22T06:32:54;17.8;;;4.8;;
76548;SDS011;65391;52.068;4.542;2023-12-22T06:35:19;17.8;;;4.8;;
76548;SDS011;65391;52.068;4.542;2023-12-22T06:37:44;17.8;;;4.8;;
76548;SDS011;65391;52.068;4.542;2023-12-22T06:40:09;17.8;;;4.8;;
76548;SDS011;65391;52.068;4.542;2023-12-22T06:42:34;17.8;;;4.8;;
76548;SDS011;65391;52.068;4.542;2023-12-22T06:44:59;17.6;;;4.5;;
76548;SDS011;65391;52.068;4.542;2023-12-22T06:47:24;17.6;;;4.5;;
76548;SDS011;65391;52.068;4.542;2023-12-22T06:49:49;17.6;;;4.5;;
76548;SDS011;65391;52.068;4.542;2023-12-22T06:52:14;17.6;;;4.5;;
76548;SDS011;65391;52.068;4.542;2023-12-22T06:54:39;17.3;;;4.6;;
76548;SDS011;65391;52.068;4.542;2023-12-22T06:57:04;17.3;;;4.6;;
76548;SDS011;65391;52.068;4.542;2023-12-22T06:59:29;17.3;;;4.6;;
76548;SDS011;65391;52.068;4.542;2023-12-22T07:01:54;17.3;;;4.6;;
76548;SDS011;65391;52.068;4.542;2023-12-22T07:04:19;16.5;;;3.6;;
76548;SDS011;65391;52.068;4.542;2023-12-22T07:06:44;16.5;;;3.6;;
76548;SDS011;65391;52.068;4.542;2023-12-22T07:09:27;16.5;;;3.6;;
76548;SDS011;65391;52.068;4.542;2023-12-22T07:11:34;16.5;;;3.6;;
76548;SDS011;65391;52.068;4.542;2023-12-22T07:13:59;17.7;;;5.2;;
76548;SDS011;65391;52.068;4.542;2023-12-22T07:16:24;17.7;;;5.2;;
76548;SDS011;65391;52.068;4.542;2023-12-22T07:18:49;17.7;;;5.2;;
76548;SDS011;65391;52.068;4.542;2023-12-22T07:21:16;17.7;;;5.2;;
76548;SDS011;65391;52.068;4.542;2023-12-22T07:23:39;13.9;;;2.1;;
76548;SDS011;65391;52.068;4.542;2023-12-22T07:26:04;13.9;;;2.1;;
76548;SDS011;65391;52.068;4.542;2023-12-22T07:28:29;13.9;;;2.1;;
76548;SDS011;65391;52.068;4.542;2023-12-22T07:30:54;13.9;;;2.1;;
76548;SDS011;65391;52.068;4.542;2023-12-22T07:33:19;13.2;;;2.8;;
76548;SDS011;65391;52.068;4.542;2023-12-22T07:35:44;13.2;;;2.8;;
76548;SDS011;65391;52.068;4.542;2023-12-22T07:38:09;13.2;;;2.8;;
76548;SDS011;65391;52.068;4.542;2023-12-22T07:40:34;13.2;;;2.8;;
76548;SDS011;65391;52.068;4.542;2023-12-22T07:42:59;14.8;;;3.4;;
76548;SDS011;65391;52.068;4.542;2023-12-22T07:45:24;14.8;;;3.4;;
76548;SDS011;65391;52.068;4.542;2023-12-22T07:47:49;14.8;;;3.4;;
76548;SDS011;65391;52.068;4.542;2023-12-22T07:50:14;14.8;;;3.4;;
76548;SDS011;65391;52.068;4.542;2023-12-22T07:52:39;14.8;;;3.4;;
76548;SDS011;65391;52.068;4.542;2023-12-22T07:55:05;8.6;;;1.7;;
76548;SDS011;65391;52.068;4.542;2023-12-22T07:57:29;8.6;;;1.7;;
76548;SDS011;65391;52.068;4.542;2023-12-22T07:59:54;8.6;;;1.7;;
76548;SDS011;65391;52.068;4.542;2023-12-22T08:02:19;8.6;;;1.7;;
76548;SDS011;65391;52.068;4.542;2023-12-22T08:04:44;10.6;;;1.9;;
76548;SDS011;65391;52.068;4.542;2023-12-22T08:07:09;10.6;;;1.9;;
76548;SDS011;65391;52.068;4.542;2023-12-22T08:09:34;10.6;;;1.9;;
76548;SDS011;65391;52.068;4.542;2023-12-22T08:11:59;10.6;;;1.9;;
76548;SDS011;65391;52.068;4.542;2023-12-22T08:14:24;9.5;;;1.3;;
76548;SDS011;65391;52.068;4.542;2023-12-22T08:16:49;9.5;;;1.3;;
76548;SDS011;65391;52.068;4.542;2023-12-22T08:19:14;9.5;;;1.3;;
76548;SDS011;65391;52.068;4.542;2023-12-22T08:21:39;9.5;;;1.3;;
76548;SDS011;65391;52.068;4.542;2023-12-22T08:24:04;10.5;;;1.7;;
76548;SDS011;65391;52.068;4.542;2023-12-22T08:26:29;10.5;;;1.7;;
76548;SDS011;65391;52.068;4.542;2023-12-22T08:28:54;10.5;;;1.7;;
76548;SDS011;65391;52.068;4.542;2023-12-22T08:31:21;10.5;;;1.7;;
76548;SDS011;65391;52.068;4.542;2023-12-22T08:33:44;10.1;;;2.1;;
76548;SDS011;65391;52.068;4.542;2023-12-22T08:36:09;10.1;;;2.1;;
76548;SDS011;65391;52.068;4.542;2023-12-22T08:38:34;10.1;;;2.1;;
76548;SDS011;65391;52.068;4.542;2023-12-22T08:40:59;10.1;;;2.1;;
76548;SDS011;65391;52.068;4.542;2023-12-22T08:43:24;11.5;;;2.1;;
76548;SDS011;65391;52.068;4.542;2023-12-22T08:45:49;11.5;;;2.1;;
76548;SDS011;65391;52.068;4.542;2023-12-22T08:48:14;11.5;;;2.1;;
76548;SDS011;65391;52.068;4.542;2023-12-22T08:50:39;11.5;;;2.1;;
76548;SDS011;65391;52.068;4.542;2023-12-22T08:53:04;8.4;;;1.2;;
76548;SDS011;65391;52.068;4.542;2023-12-22T08:55:29;8.4;;;1.2;;
76548;SDS011;65391;52.068;4.542;2023-12-22T08:57:54;8.4;;;1.2;;
76548;SDS011;65391;52.068;4.542;2023-12-22T09:00:19;8.4;;;1.2;;
76548;SDS011;65391;52.068;4.542;2023-12-22T09:02:44;8.4;;;1.2;;
76548;SDS011;65391;52.068;4.542;2023-12-22T09:05:09;7.2;;;1.3;;
76548;SDS011;65391;52.068;4.542;2023-12-22T09:07:34;7.2;;;1.3;;
76548;SDS011;65391;52.068;4.542;2023-12-22T09:09:59;7.2;;;1.3;;
76548;SDS011;65391;52.068;4.542;2023-12-22T09:12:24;7.2;;;1.3;;
76548;SDS011;65391;52.068;4.542;2023-12-22T09:14:49;5.8;;;1.1;;
76548;SDS011;65391;52.068;4.542;2023-12-22T09:17:14;5.8;;;1.1;;
76548;SDS011;65391;52.068;4.542;2023-12-22T09:19:39;5.8;;;1.1;;
76548;SDS011;65391;52.068;4.542;2023-12-22T09:22:04;5.8;;;1.1;;
76548;SDS011;65391;52.068;4.542;2023-12-22T09:24:29;4.8;;;1;;
76548;SDS011;65391;52.068;4.542;2023-12-22T09:26:54;4.8;;;1;;
76548;SDS011;65391;52.068;4.542;2023-12-22T09:29:19;4.8;;;1;;
76548;SDS011;65391;52.068;4.542;2023-12-22T09:31:44;4.8;;;1;;
76548;SDS011;65391;52.068;4.542;2023-12-22T09:34:09;9.7;;;1.3;;
76548;SDS011;65391;52.068;4.542;2023-12-22T09:36:34;9.7;;;1.3;;
76548;SDS011;65391;52.068;4.542;2023-12-22T09:38:59;9.7;;;1.3;;
76548;SDS011;65391;52.068;4.542;2023-12-22T09:41:24;9.7;;;1.3;;
76548;SDS011;65391;52.068;4.542;2023-12-22T09:43:49;5.3;;;1.2;;
76548;SDS011;65391;52.068;4.542;2023-12-22T09:46:14;5.3;;;1.2;;
76548;SDS011;65391;52.068;4.542;2023-12-22T09:48:39;5.3;;;1.2;;
76548;SDS011;65391;52.068;4.542;2023-12-22T09:51:04;5.3;;;1.2;;
76548;SDS011;65391;52.068;4.542;2023-12-22T09:53:29;9.7;;;1.2;;
76548;SDS011;65391;52.068;4.542;2023-12-22T09:55:55;9.7;;;1.2;;
76548;SDS011;65391;52.068;4.542;2023-12-22T09:58:19;9.7;;;1.2;;
76548;SDS011;65391;52.068;4.542;2023-12-22T10:00:44;9.7;;;1.2;;
76548;SDS011;65391;52.068;4.542;2023-12-22T10:03:11;7.7;;;1.1;;
76548;SDS011;65391;52.068;4.542;2023-12-22T10:05:34;7.7;;;1.1;;
76548;SDS011;65391;52.068;4.542;2023-12-22T10:07:59;7.7;;;1.1;;
76548;SDS011;65391;52.068;4.542;2023-12-22T10:10:24;7.7;;;1.1;;
76548;SDS011;65391;52.068;4.542;2023-12-22T10:12:49;7.7;;;1.1;;
76548;SDS011;65391;52.068;4.542;2023-12-22T10:15:14;7.6;;;1.2;;
76548;SDS011;65391;52.068;4.542;2023-12-22T10:17:39;7.6;;;1.2;;
76548;SDS011;65391;52.068;4.542;2023-12-22T10:20:05;7.6;;;1.2;;
76548;SDS011;65391;52.068;4.542;2023-12-22T10:22:29;7.6;;;1.2;;
76548;SDS011;65391;52.068;4.542;2023-12-22T10:24:54;6.6;;;1.2;;
76548;SDS011;65391;52.068;4.542;2023-12-22T10:27:19;6.6;;;1.2;;
76548;SDS011;65391;52.068;4.542;2023-12-22T10:29:44;6.6;;;1.2;;
76548;SDS011;65391;52.068;4.542;2023-12-22T10:32:09;6.6;;;1.2;;
76548;SDS011;65391;52.068;4.542;2023-12-22T10:34:34;10.3;;;1.6;;
76548;SDS011;65391;52.068;4.542;2023-12-22T10:36:59;10.3;;;1.6;;
76548;SDS011;65391;52.068;4.542;2023-12-22T10:39:26;10.3;;;1.6;;
76548;SDS011;65391;52.068;4.542;2023-12-22T10:41:49;10.3;;;1.6;;
76548;SDS011;65391;52.068;4.542;2023-12-22T10:44:17;9.3;;;2.3;;
76548;SDS011;65391;52.068;4.542;2023-12-22T10:46:39;9.3;;;2.3;;
76548;SDS011;65391;52.068;4.542;2023-12-22T10:49:04;9.3;;;2.3;;
76548;SDS011;65391;52.068;4.542;2023-12-22T10:51:29;9.3;;;2.3;;
76548;SDS011;65391;52.068;4.542;2023-12-22T10:53:54;8.9;;;1.7;;
76548;SDS011;65391;52.068;4.542;2023-12-22T10:56:19;8.9;;;1.7;;
76548;SDS011;65391;52.068;4.542;2023-12-22T10:58:44;8.9;;;1.7;;
76548;SDS011;65391;52.068;4.542;2023-12-22T11:01:09;8.9;;;1.7;;
76548;SDS011;65391;52.068;4.542;2023-12-22T11:03:34;10.4;;;1.4;;
76548;SDS011;65391;52.068;4.542;2023-12-22T11:06:02;10.4;;;1.4;;
76548;SDS011;65391;52.068;4.542;2023-12-22T11:08:24;10.4;;;1.4;;
76548;SDS011;65391;52.068;4.542;2023-12-22T11:10:51;10.4;;;1.4;;
76548;SDS011;65391;52.068;4.542;2023-12-22T11:13:14;10.5;;;1.4;;
76548;SDS011;65391;52.068;4.542;2023-12-22T11:15:40;10.5;;;1.4;;
76548;SDS011;65391;52.068;4.542;2023-12-22T11:18:04;10.5;;;1.4;;
76548;SDS011;65391;52.068;4.542;2023-12-22T11:20:29;10.5;;;1.4;;
76548;SDS011;65391;52.068;4.542;2023-12-22T11:22:54;10.5;;;1.4;;
76548;SDS011;65391;52.068;4.542;2023-12-22T11:25:22;6;;;1.6;;
76548;SDS011;65391;52.068;4.542;2023-12-22T11:27:44;6;;;1.6;;
76548;SDS011;65391;52.068;4.542;2023-12-22T11:30:09;6;;;1.6;;
76548;SDS011;65391;52.068;4.542;2023-12-22T11:32:34;6;;;1.6;;
76548;SDS011;65391;52.068;4.542;2023-12-22T11:34:59;12.4;;;1.3;;
76548;SDS011;65391;52.068;4.542;2023-12-22T11:37:24;12.4;;;1.3;;
76548;SDS011;65391;52.068;4.542;2023-12-22T11:39:49;12.4;;;1.3;;
76548;SDS011;65391;52.068;4.542;2023-12-22T11:42:17;12.4;;;1.3;;
76548;SDS011;65391;52.068;4.542;2023-12-22T11:44:39;6.7;;;1.3;;
76548;SDS011;65391;52.068;4.542;2023-12-22T11:47:05;6.7;;;1.3;;
76548;SDS011;65391;52.068;4.542;2023-12-22T11:49:31;6.7;;;1.3;;
76548;SDS011;65391;52.068;4.542;2023-12-22T11:51:54;6.7;;;1.3;;
76548;SDS011;65391;52.068;4.542;2023-12-22T11:54:52;5.4;;;1.5;;
76548;SDS011;65391;52.068;4.542;2023-12-22T11:56:44;5.4;;;1.5;;
76548;SDS011;65391;52.068;4.542;2023-12-22T11:59:09;5.4;;;1.5;;
76548;SDS011;65391;52.068;4.542;2023-12-22T12:01:34;5.4;;;1.5;;
76548;SDS011;65391;52.068;4.542;2023-12-22T12:04:01;8.4;;;1;;
76548;SDS011;65391;52.068;4.542;2023-12-22T12:06:32;8.4;;;1;;
76548;SDS011;65391;52.068;4.542;2023-12-22T12:08:49;8.4;;;1;;
76548;SDS011;65391;52.068;4.542;2023-12-22T12:11:14;8.4;;;1;;
76548;SDS011;65391;52.068;4.542;2023-12-22T12:13:42;11;;;1.5;;
76548;SDS011;65391;52.068;4.542;2023-12-22T12:16:04;11;;;1.5;;
76548;SDS011;65391;52.068;4.542;2023-12-22T12:18:29;11;;;1.5;;
76548;SDS011;65391;52.068;4.542;2023-12-22T12:20:54;11;;;1.5;;
76548;SDS011;65391;52.068;4.542;2023-12-22T12:23:19;6;;;1.2;;
76548;SDS011;65391;52.068;4.542;2023-12-22T12:25:44;6;;;1.2;;
76548;SDS011;65391;52.068;4.542;2023-12-22T12:28:09;6;;;1.2;;
76548;SDS011;65391;52.068;4.542;2023-12-22T12:30:35;6;;;1.2;;
76548;SDS011;65391;52.068;4.542;2023-12-22T12:32:59;6;;;1.2;;
76548;SDS011;65391;52.068;4.542;2023-12-22T12:35:24;6.1;;;0.9;;
76548;SDS011;65391;52.068;4.542;2023-12-22T12:37:49;6.1;;;0.9;;
76548;SDS011;65391;52.068;4.542;2023-12-22T12:40:14;6.1;;;0.9;;
76548;SDS011;65391;52.068;4.542;2023-12-22T12:42:39;6.1;;;0.9;;
76548;SDS011;65391;52.068;4.542;2023-12-22T12:45:05;5.6;;;1.1;;
76548;SDS011;65391;52.068;4.542;2023-12-22T12:47:29;5.6;;;1.1;;
76548;SDS011;65391;52.068;4.542;2023-12-22T12:49:57;5.6;;;1.1;;
76548;SDS011;65391;52.068;4.542;2023-12-22T12:52:19;5.6;;;1.1;;
76548;SDS011;65391;52.068;4.542;2023-12-22T12:54:44;7.1;;;1.6;;
76548;SDS011;65391;52.068;4.542;2023-12-22T12:57:13;7.1;;;1.6;;
76548;SDS011;65391;52.068;4.542;2023-12-22T12:59:34;7.1;;;1.6;;
76548;SDS011;65391;52.068;4.542;2023-12-22T13:01:59;7.1;;;1.6;;
76548;SDS011;65391;52.068;4.542;2023-12-22T13:04:24;9.8;;;2.1;;
76548;SDS011;65391;52.068;4.542;2023-12-22T13:06:50;9.8;;;2.1;;
76548;SDS011;65391;52.068;4.542;2023-12-22T13:09:14;9.8;;;2.1;;
76548;SDS011;65391;52.068;4.542;2023-12-22T13:11:39;9.8;;;2.1;;
76548;SDS011;65391;52.068;4.542;2023-12-22T13:14:04;12.3;;;2.4;;
76548;SDS011;65391;52.068;4.542;2023-12-22T13:16:29;12.3;;;2.4;;
76548;SDS011;65391;52.068;4.542;2023-12-22T13:18:54;12.3;;;2.4;;
76548;SDS011;65391;52.068;4.542;2023-12-22T13:21:19;12.3;;;2.4;;
76548;SDS011;65391;52.068;4.542;2023-12-22T13:23:44;5.4;;;1.4;;
76548;SDS011;65391;52.068;4.542;2023-12-22T13:26:17;5.4;;;1.4;;
76548;SDS011;65391;52.068;4.542;2023-12-22T13:28:34;5.4;;;1.4;;
76548;SDS011;65391;52.068;4.542;2023-12-22T13:30:59;5.4;;;1.4;;
76548;SDS011;65391;52.068;4.542;2023-12-22T13:33:24;7.4;;;1.8;;
76548;SDS011;65391;52.068;4.542;2023-12-22T13:35:49;7.4;;;1.8;;
76548;SDS011;65391;52.068;4.542;2023-12-22T13:38:17;7.4;;;1.8;;
76548;SDS011;65391;52.068;4.542;2023-12-22T13:40:44;7.4;;;1.8;;
76548;SDS011;65391;52.068;4.542;2023-12-22T13:43:04;7.4;;;1.8;;
76548;SDS011;65391;52.068;4.542;2023-12-22T13:45:29;5.6;;;1.4;;
76548;SDS011;65391;52.068;4.542;2023-12-22T13:47:54;5.6;;;1.4;;
76548;SDS011;65391;52.068;4.542;2023-12-22T13:50:20;5.6;;;1.4;;
76548;SDS011;65391;52.068;4.542;2023-12-22T13:52:44;5.6;;;1.4;;
76548;SDS011;65391;52.068;4.542;2023-12-22T13:55:10;12.1;;;1.9;;
76548;SDS011;65391;52.068;4.542;2023-12-22T13:57:34;12.1;;;1.9;;
76548;SDS011;65391;52.068;4.542;2023-12-22T13:59:59;12.1;;;1.9;;
76548;SDS011;65391;52.068;4.542;2023-12-22T14:02:24;12.1;;;1.9;;
76548;SDS011;65391;52.068;4.542;2023-12-22T14:04:49;13.1;;;3.1;;
76548;SDS011;65391;52.068;4.542;2023-12-22T14:07:14;13.1;;;3.1;;
76548;SDS011;65391;52.068;4.542;2023-12-22T14:09:39;13.1;;;3.1;;
76548;SDS011;65391;52.068;4.542;2023-12-22T14:12:04;13.1;;;3.1;;
76548;SDS011;65391;52.068;4.542;2023-12-22T14:14:30;10.8;;;1.8;;
76548;SDS011;65391;52.068;4.542;2023-12-22T14:16:54;10.8;;;1.8;;
76548;SDS011;65391;52.068;4.542;2023-12-22T14:19:19;10.8;;;1.8;;
76548;SDS011;65391;52.068;4.542;2023-12-22T14:21:44;10.8;;;1.8;;
76548;SDS011;65391;52.068;4.542;2023-12-22T14:24:09;6.6;;;1.8;;
76548;SDS011;65391;52.068;4.542;2023-12-22T14:26:51;6.6;;;1.8;;
76548;SDS011;65391;52.068;4.542;2023-12-22T14:28:59;6.6;;;1.8;;
76548;SDS011;65391;52.068;4.542;2023-12-22T14:31:24;6.6;;;1.8;;
76548;SDS011;65391;52.068;4.542;2023-12-22T14:33:49;11.8;;;2;;
76548;SDS011;65391;52.068;4.542;2023-12-22T14:36:14;11.8;;;2;;
76548;SDS011;65391;52.068;4.542;2023-12-22T14:38:39;11.8;;;2;;
76548;SDS011;65391;52.068;4.542;2023-12-22T14:41:04;11.8;;;2;;
76548;SDS011;65391;52.068;4.542;2023-12-22T14:43:29;10.1;;;2;;
76548;SDS011;65391;52.068;4.542;2023-12-22T14:45:54;10.1;;;2;;
76548;SDS011;65391;52.068;4.542;2023-12-22T14:48:19;10.1;;;2;;
76548;SDS011;65391;52.068;4.542;2023-12-22T14:50:44;10.1;;;2;;
76548;SDS011;65391;52.068;4.542;2023-12-22T14:53:09;10.1;;;2;;
76548;SDS011;65391;52.068;4.542;2023-12-22T14:55:34;9.4;;;1.8;;
76548;SDS011;65391;52.068;4.542;2023-12-22T14:57:59;9.4;;;1.8;;